Albany, Oklahoma
Current Conditions -  °F | °C
As of 1:55 PM on Thursday 30 Oct 2014 (Local Time) from KDUA Reporting Station
Broken Clouds Broken Clouds  
Wind Chill: 70°   Ceiling: 11000
Heat Index: 70°   Visibility: 10mi
Dew Point: 50°   Wind: 6mph
Humidity: 49%   Direction: 210°SSW
Pressure: 30.11"   Gusts: NA
Location:  33.88°N, 96.16°W
Report Text: KDUA 301855Z AUTO 21005KT 10SM SCT055 SCT070 BKN110 21/10 A3011 RMK AO2
Loading
Personal Weather Stations






























Interactive Weather Map
Tropical Storm Tracking
New forecast layout! Learn more

10-Day Weather Forecast

Advertisements
Track Severe Weather on mobile